Time;durP1;ratioP1;P1;durP2;ratioP2;P2;SDS_P1;SDS_P2;PMS_P1;PMS_P2;Temp;Humidity;BMP_temperature;BMP_pressure;BME280_temperature;BME280_humidity;BME280_pressure;Samples;Min_cycle;Max_cycle;Signal;HPM_P1;HPM_P2
2022/01/19 08:13:52;;;;;;;5.13;4.43;;;;;;;;;;12256398;23;1529926;-80
2022/01/19 08:18:53;;;;;;;6.18;4.43;;;;;;;;;;12239057;24;20522;-80
2022/01/19 08:23:54;;;;;;;;;;;;;;;;;;12214436;24;20013;-81
2022/01/19 08:28:55;;;;;;;6.00;4.70;;;;;;;;;;12226619;24;19961;-80
2022/01/19 08:33:56;;;;;;;;;;;;;;;;;;12216655;24;20325;-81
2022/01/19 08:38:59;;;;;;;11.05;9.13;;;;;;;;;;12230639;24;20333;-85
2022/01/19 08:44:00;;;;;;;6.88;6.18;;;;;;;;;;12182306;24;20088;-84
2022/01/19 08:49:01;;;;;;;8.35;7.45;;;;;;;;;;12169640;24;20006;-85
2022/01/19 08:54:03;;;;;;;13.88;12.38;;;;;;;;;;12171734;24;20079;-84
2022/01/19 08:59:04;;;;;;;;;;;;;;;;;;12166973;24;20068;-85
2022/01/19 09:04:05;;;;;;;6.97;6.28;;;;;;;;;;12144116;24;20238;-84
2022/01/19 09:09:06;;;;;;;7.32;6.63;;;;;;;;;;12143735;24;20006;-84
2022/01/19 09:14:08;;;;;;;7.30;6.00;;;;;;;;;;12142659;24;20048;-84
2022/01/19 09:19:09;;;;;;;9.32;7.35;;;;;;;;;;12142893;24;20023;-86
2022/01/19 09:24:10;;;;;;;7.18;5.63;;;;;;;;;;12142955;24;20013;-85
2022/01/19 09:29:11;;;;;;;12.55;10.38;;;;;;;;;;12141782;24;20030;-84
2022/01/19 09:34:15;;;;;;;;;;;;;;;;;;12164598;24;20018;-84
2022/01/19 09:39:18;;;;;;;9.30;8.30;;;;;;;;;;12137845;24;19919;-83
2022/01/19 09:44:21;;;;;;;7.95;7.03;;;;;;;;;;12142868;24;20010;-85
2022/01/19 09:49:22;;;;;;;8.35;7.30;;;;;;;;;;12142388;24;20010;-83
2022/01/19 09:54:24;;;;;;;6.53;5.10;;;;;;;;;;12140331;24;20284;-85
2022/01/19 09:59:26;;;;;;;9.27;8.25;;;;;;;;;;12167446;24;20059;-85
2022/01/19 10:04:28;;;;;;;8.57;7.68;;;;;;;;;;12138398;24;20117;-84
2022/01/19 10:09:29;;;;;;;5.35;4.78;;;;;;;;;;12137314;24;20018;-84
2022/01/19 10:20:15;;;;;;;5.20;4.60;;;;;;;;;;12163326;24;20336;-84
2022/01/19 10:25:18;;;;;;;6.60;5.57;;;;;;;;;;12176162;24;20021;-86
2022/01/19 10:30:21;;;;;;;6.72;5.85;;;;;;;;;;12158745;24;20014;-86
2022/01/19 10:35:37;;;;;;;7.07;6.38;;;;;;;;;;12138334;24;20021;-85
2022/01/19 10:40:41;;;;;;;9.02;6.93;;;;;;;;;;12139303;24;20509;-85
2022/01/19 10:45:42;;;;;;;7.70;6.88;;;;;;;;;;12167408;24;20029;-85
2022/01/19 10:50:44;;;;;;;;;;;;;;;;;;12144300;24;20052;-86
2022/01/19 10:55:45;;;;;;;6.38;5.65;;;;;;;;;;12143583;24;19915;-86
2022/01/19 11:00:46;;;;;;;;;;;;;;;;;;12140493;24;20017;-85
2022/01/19 11:05:51;;;;;;;13.00;9.88;;;;;;;;;;12139670;24;19947;-86
2022/01/19 11:10:54;;;;;;;14.93;12.30;;;;;;;;;;12139434;24;20433;-86
2022/01/19 11:15:56;;;;;;;12.40;10.43;;;;;;;;;;12160224;24;20093;-85
2022/01/19 11:20:58;;;;;;;15.38;12.63;;;;;;;;;;12161664;24;20006;-84
2022/01/19 11:26:04;;;;;;;6.50;4.72;;;;;;;;;;12160908;24;20010;-85
2022/01/19 11:31:07;;;;;;;12.55;10.57;;;;;;;;;;12140199;24;20040;-84
2022/01/19 11:36:18;;;;;;;10.15;8.23;;;;;;;;;;12164122;24;20359;-84
2022/01/19 11:41:20;;;;;;;10.82;9.73;;;;;;;;;;12145349;24;20440;-85
2022/01/19 11:46:21;;;;;;;;;;;;;;;;;;12142477;24;20455;-85
2022/01/19 11:51:30;;;;;;;10.18;8.20;;;;;;;;;;12142819;24;19939;-84
2022/01/19 11:56:31;;;;;;;11.35;10.15;;;;;;;;;;12141723;24;20014;-85
2022/01/19 12:01:32;;;;;;;7.78;6.65;;;;;;;;;;12166246;24;20033;-85
2022/01/19 12:06:34;;;;;;;;;;;;;;;;;;12144314;24;20448;-83
2022/01/19 12:11:37;;;;;;;11.32;9.70;;;;;;;;;;12145220;24;19904;-83
2022/01/19 12:21:43;;;;;;;10.65;8.52;;;;;;;;;;12167555;24;20069;-83
2022/01/19 12:26:48;;;;;;;7.15;6.45;;;;;;;;;;12143234;24;20092;-83
2022/01/19 12:31:50;;;;;;;8.27;6.43;;;;;;;;;;12143206;24;20096;-83
2022/01/19 12:36:58;;;;;;;10.13;8.35;;;;;;;;;;12144903;24;20096;-85
2022/01/19 12:42:05;;;;;;;13.23;8.27;;;;;;;;;;12148354;24;20026;-84
2022/01/19 12:47:29;;;;;;;6.90;5.93;;;;;;;;;;12148744;24;20061;-84
2022/01/19 12:52:39;;;;;;;10.32;9.27;;;;;;;;;;12144395;24;20010;-84
2022/01/19 12:57:45;;;;;;;12.90;10.00;;;;;;;;;;12151978;24;20084;-84
2022/01/19 13:02:59;;;;;;;8.30;6.82;;;;;;;;;;12189340;24;20032;-85
2022/01/19 13:08:23;;;;;;;8.68;7.68;;;;;;;;;;12156439;24;20014;-84
2022/01/19 13:19:14;;;;;;;8.13;7.30;;;;;;;;;;12170810;24;20422;-84
2022/01/19 13:24:29;;;;;;;9.35;7.72;;;;;;;;;;12147530;24;20266;-84
2022/01/19 13:29:42;;;;;;;8.35;7.40;;;;;;;;;;12169488;24;20058;-83
2022/01/19 13:35:02;;;;;;;9.30;8.25;;;;;;;;;;12144207;24;20026;-83
2022/01/19 13:46:01;;;;;;;7.60;6.40;;;;;;;;;;12166079;24;20014;-85
2022/01/19 13:51:05;;;;;;;7.47;6.47;;;;;;;;;;12143917;24;20082;-83
2022/01/19 13:56:20;;;;;;;8.50;6.03;;;;;;;;;;12139032;24;20006;-83
2022/01/19 14:01:32;;;;;;;6.72;5.72;;;;;;;;;;12139745;24;20009;-82
2022/01/19 14:06:49;;;;;;;13.38;11.30;;;;;;;;;;12139326;24;20041;-83
2022/01/19 14:11:57;;;;;;;13.63;9.00;;;;;;;;;;12168239;24;20006;-82
2022/01/19 14:16:59;;;;;;;5.00;4.00;;;;;;;;;;12174986;24;20018;-83
2022/01/19 14:22:14;;;;;;;10.77;8.57;;;;;;;;;;12149952;24;20064;-83
2022/01/19 14:27:17;;;;;;;9.68;7.43;;;;;;;;;;12151250;24;20060;-83
2022/01/19 14:32:39;;;;;;;5.55;4.85;;;;;;;;;;12153078;24;20021;-84
2022/01/19 14:37:54;;;;;;;10.15;9.10;;;;;;;;;;12175832;24;20085;-81
2022/01/19 14:42:55;;;;;;;8.15;7.32;;;;;;;;;;12196313;24;20038;-82
2022/01/19 14:48:01;;;;;;;12.70;10.13;;;;;;;;;;12199404;24;20391;-82
2022/01/19 14:53:02;;;;;;;5.45;4.65;;;;;;;;;;12196812;24;20431;-81
2022/01/19 14:58:06;;;;;;;7.53;6.45;;;;;;;;;;12225672;24;20036;-80
2022/01/19 15:03:20;;;;;;;7.80;6.65;;;;;;;;;;12198843;24;20006;-80
2022/01/19 15:08:21;;;;;;;10.50;9.23;;;;;;;;;;12161610;24;20013;-79
2022/01/19 15:13:22;;;;;;;9.02;7.88;;;;;;;;;;12202915;24;20002;-78
2022/01/19 15:18:23;;;;;;;7.80;6.72;;;;;;;;;;12200563;24;20351;-78
2022/01/19 15:23:25;;;;;;;;;;;;;;;;;;12201905;24;20006;-80
2022/01/19 15:28:26;;;;;;;9.10;7.93;;;;;;;;;;12198060;24;19908;-80
2022/01/19 15:33:27;;;;;;;;;;;;;;;;;;12196795;24;20096;-80
2022/01/19 15:38:28;;;;;;;11.18;9.40;;;;;;;;;;12194655;24;19916;-80
2022/01/19 15:43:30;;;;;;;8.35;7.45;;;;;;;;;;12195609;24;20089;-80
2022/01/19 15:48:31;;;;;;;12.40;9.00;;;;;;;;;;12202923;24;20010;-80
2022/01/19 15:53:34;;;;;;;7.72;6.82;;;;;;;;;;12219662;24;20120;-78
2022/01/19 15:58:36;;;;;;;12.20;10.73;;;;;;;;;;12218329;24;20014;-78
2022/01/19 16:03:40;;;;;;;9.80;8.57;;;;;;;;;;12217979;24;20013;-80
2022/01/19 16:08:42;;;;;;;11.95;9.73;;;;;;;;;;12246928;24;20067;-80
2022/01/19 16:13:46;;;;;;;21.33;18.38;;;;;;;;;;12219944;24;20073;-77
2022/01/19 16:18:49;;;;;;;13.48;10.68;;;;;;;;;;12215726;24;20355;-78
2022/01/19 16:29:28;;;;;;;10.75;9.10;;;;;;;;;;12237795;24;20018;-78
2022/01/19 16:34:29;;;;;;;;;;;;;;;;;;12212529;24;20009;-78
2022/01/19 16:39:30;;;;;;;11.50;8.40;;;;;;;;;;12212730;24;19922;-78
2022/01/19 16:44:31;;;;;;;;;;;;;;;;;;12212817;24;20014;-79
2022/01/19 16:49:36;;;;;;;6.55;5.75;;;;;;;;;;12213439;24;19903;-79
2022/01/19 16:54:37;;;;;;;13.32;10.25;;;;;;;;;;12214513;24;20006;-80
2022/01/19 16:59:41;;;;;;;;;;;;;;;;;;12213764;24;20030;-79
2022/01/19 17:04:43;;;;;;;10.75;9.45;;;;;;;;;;12214227;24;19904;-80
2022/01/19 17:09:47;;;;;;;;;;;;;;;;;;12218301;24;20458;-80
2022/01/19 17:14:55;;;;;;;5.90;4.07;;;;;;;;;;12217544;24;19939;-82
2022/01/19 17:20:07;;;;;;;;;;;;;;;;;;;;;
2022/01/19 17:30:25;;;;;;;15.35;12.45;;;;;;;;;;12239779;24;20025;-82
2022/01/19 17:35:26;;;;;;;9.85;8.77;;;;;;;;;;12198108;24;20018;-82
2022/01/19 17:40:27;;;;;;;15.75;13.32;;;;;;;;;;12217414;24;20002;-81
2022/01/19 17:45:44;;;;;;;;;;;;;;;;;;12222620;24;20014;-82
2022/01/19 17:56:12;;;;;;;9.65;7.82;;;;;;;;;;12247065;24;20034;-79
2022/01/19 18:01:29;;;;;;;17.70;13.93;;;;;;;;;;12243105;24;20005;-79
2022/01/19 18:06:34;;;;;;;8.73;7.28;;;;;;;;;;12218526;24;20133;-79
2022/01/19 18:11:38;;;;;;;8.15;7.10;;;;;;;;;;12212095;24;20081;-82
2022/01/19 18:16:49;;;;;;;16.48;14.15;;;;;;;;;;12239880;24;20017;-82
2022/01/19 18:21:50;;;;;;;19.67;16.88;;;;;;;;;;12215586;24;20013;-81
2022/01/19 18:26:52;;;;;;;16.52;13.77;;;;;;;;;;12239989;24;20006;-82
2022/01/19 18:31:57;;;;;;;17.42;14.43;;;;;;;;;;12240111;24;20043;-83
2022/01/19 18:36:58;;;;;;;19.25;16.00;;;;;;;;;;12218620;24;20013;-81
2022/01/19 18:42:12;;;;;;;;;;;;;;;;;;12217970;24;20424;-81
2022/01/19 18:47:18;;;;;;;15.88;12.75;;;;;;;;;;12210406;24;19929;-82
2022/01/19 18:52:23;;;;;;;11.30;9.30;;;;;;;;;;12219085;24;20013;-83
2022/01/19 18:57:24;;;;;;;11.80;9.82;;;;;;;;;;12219810;24;20029;-82
2022/01/19 19:02:25;;;;;;;;;;;;;;;;;;12218825;24;20006;-82
2022/01/19 19:07:26;;;;;;;12.25;10.52;;;;;;;;;;12219423;24;19947;-82
2022/01/19 19:12:27;;;;;;;;;;;;;;;;;;12216381;24;20014;-80
2022/01/19 19:17:28;;;;;;;12.57;11.27;;;;;;;;;;12213540;24;19934;-80
2022/01/19 19:22:31;;;;;;;13.38;11.55;;;;;;;;;;12210571;24;20055;-78
2022/01/19 19:27:32;;;;;;;7.95;7.10;;;;;;;;;;12217207;24;20036;-80
2022/01/19 19:32:33;;;;;;;;;;;;;;;;;;12218075;24;20013;-80
2022/01/19 19:37:34;;;;;;;14.13;11.30;;;;;;;;;;12215190;24;19907;-80
2022/01/19 19:42:35;;;;;;;;;;;;;;;;;;12215135;24;20006;-79
2022/01/19 19:47:37;;;;;;;20.33;16.42;;;;;;;;;;12213368;24;19910;-79
2022/01/19 19:52:38;;;;;;;15.60;12.57;;;;;;;;;;12214214;24;20016;-78
2022/01/19 19:57:39;;;;;;;11.38;9.73;;;;;;;;;;12219580;24;20041;-80
2022/01/19 20:02:42;;;;;;;16.05;13.48;;;;;;;;;;12218397;24;20010;-79
2022/01/19 20:07:43;;;;;;;12.27;10.15;;;;;;;;;;12242377;24;20017;-80
2022/01/19 20:12:46;;;;;;;7.65;6.13;;;;;;;;;;12242789;24;20364;-80
2022/01/19 20:17:49;;;;;;;14.85;13.27;;;;;;;;;;12219428;24;20017;-80
2022/01/19 20:22:50;;;;;;;15.45;13.82;;;;;;;;;;12217996;24;20016;-79
2022/01/19 20:27:51;;;;;;;;;;;;;;;;;;12219013;24;20017;-81
2022/01/19 20:32:52;;;;;;;10.77;8.43;;;;;;;;;;12215496;24;19911;-81
2022/01/19 20:37:54;;;;;;;;;;;;;;;;;;12235467;24;20044;-82
2022/01/19 20:49:16;;;;;;;7.93;6.32;;;;;;;;;;12231825;24;20010;-82
2022/01/19 20:54:29;;;;;;;9.40;7.68;;;;;;;;;;12228509;24;20029;-82
2022/01/19 20:59:36;;;;;;;7.15;4.85;;;;;;;;;;12206517;24;20106;-83
2022/01/19 21:04:58;;;;;;;8.85;5.80;;;;;;;;;;12175978;24;20419;-83
2022/01/19 21:09:59;;;;;;;8.10;5.63;;;;;;;;;;12204307;24;20052;-82
